RPA3436 KEWR-KMCI
Flight info
| Callsign | RPA3436 |
|---|---|
| Flight time | N/A |
| Altitude | 30000 |
| Route | ZIMMZ Q42 MIKYG Q480 AIR J80 SPI BULET RUDDH3 |
| Aircraft | E75L/M-SDE3GILORVW/S |
Departure
| Time | 2026-04-25 01:29 |
|---|---|
| Airport | Newark Liberty International Airport (KEWR) |
Arrival
| Time | N/A |
|---|---|
| Airport | Kansas City International Airport (KMCI) |
| Time | Latitude | Longitude | Altitude | Speed | Heading |
|---|---|---|---|---|---|
| 2026-04-25 01:10 | 40.69379 | -74.17297 | 20 ft | 0 kts | 44° |
| 2026-04-25 01:19 | 40.69367 | -74.17313 | 20 ft | 3 kts | 44° |
| 2026-04-25 01:20 | 40.69353 | -74.17331 | 20 ft | 3 kts | 44° |
| 2026-04-25 01:20 | 40.69339 | -74.17348 | 20 ft | 3 kts | 44° |
| 2026-04-25 01:20 | 40.69328 | -74.17362 | 20 ft | 0 kts | 44° |
| 2026-04-25 01:22 | 40.69328 | -74.17363 | 20 ft | 0 kts | 44° |
| 2026-04-25 01:23 | 40.69328 | -74.17362 | 20 ft | 0 kts | 44° |
| 2026-04-25 01:23 | 40.69332 | -74.17348 | 20 ft | 2 kts | 96° |
| 2026-04-25 01:23 | 40.69317 | -74.17318 | 20 ft | 7 kts | 125° |
| 2026-04-25 01:23 | 40.69283 | -74.17252 | 21 ft | 10 kts | 122° |
| 2026-04-25 01:24 | 40.69247 | -74.17168 | 21 ft | 6 kts | 116° |
| 2026-04-25 01:24 | 40.69225 | -74.17157 | 20 ft | 4 kts | 188° |
| 2026-04-25 01:24 | 40.69187 | -74.17178 | 21 ft | 8 kts | 205° |
| 2026-04-25 01:24 | 40.69125 | -74.17217 | 20 ft | 12 kts | 206° |
| 2026-04-25 01:25 | 40.69044 | -74.17269 | 20 ft | 13 kts | 205° |
| 2026-04-25 01:25 | 40.68951 | -74.17327 | 22 ft | 16 kts | 206° |
| 2026-04-25 01:25 | 40.68854 | -74.17389 | 20 ft | 15 kts | 206° |
| 2026-04-25 01:25 | 40.68756 | -74.17451 | 20 ft | 15 kts | 206° |
| 2026-04-25 01:26 | 40.68657 | -74.17514 | 20 ft | 16 kts | 205° |
| 2026-04-25 01:26 | 40.68554 | -74.17580 | 21 ft | 17 kts | 206° |
| 2026-04-25 01:26 | 40.68468 | -74.17634 | 20 ft | 14 kts | 206° |
| 2026-04-25 01:26 | 40.68383 | -74.17689 | 21 ft | 14 kts | 205° |
| 2026-04-25 01:27 | 40.68313 | -74.17719 | 20 ft | 9 kts | 165° |
| 2026-04-25 01:27 | 40.68274 | -74.17663 | 22 ft | 8 kts | 149° |
| 2026-04-25 01:27 | 40.68222 | -74.17635 | 19 ft | 8 kts | 142° |
| 2026-04-25 01:28 | 40.68197 | -74.17528 | 19 ft | 4 kts | 40° |
| 2026-04-25 01:28 | 40.68223 | -74.17511 | 20 ft | 7 kts | 25° |
| 2026-04-25 01:28 | 40.68430 | -74.17378 | 22 ft | 64 kts | 25° |
| 2026-04-25 01:28 | 40.69000 | -74.17014 | 22 ft | 121 kts | 26° |
| 2026-04-25 01:29 | 40.69906 | -74.16442 | 18 ft | 169 kts | 26° |
| 2026-04-25 01:29 | 40.71023 | -74.15732 | 461 ft | 182 kts | 27° |
| 2026-04-25 01:29 | 40.72118 | -74.14815 | 951 ft | 198 kts | 40° |
| 2026-04-25 01:29 | 40.73192 | -74.13610 | 1733 ft | 207 kts | 46° |
| 2026-04-25 01:30 | 40.74184 | -74.12213 | 2629 ft | 209 kts | 50° |
| 2026-04-25 01:30 | 40.75148 | -74.10769 | 3132 ft | 211 kts | 49° |
| 2026-04-25 01:30 | 40.76261 | -74.09442 | 3089 ft | 214 kts | 32° |
| 2026-04-25 01:30 | 40.77702 | -74.08847 | 2494 ft | 230 kts | 1° |
| 2026-04-25 01:31 | 40.78766 | -74.09116 | 2353 ft | 238 kts | 333° |
| 2026-04-25 01:31 | 40.80293 | -74.10925 | 3745 ft | 218 kts | 309° |
| 2026-04-25 01:31 | 40.80881 | -74.12087 | 3985 ft | 233 kts | 297° |
| 2026-04-25 01:31 | 40.81453 | -74.14163 | 4374 ft | 251 kts | 285° |
| 2026-04-25 01:32 | 40.81723 | -74.16536 | 4749 ft | 269 kts | 274° |
| 2026-04-25 01:32 | 40.81697 | -74.18955 | 5457 ft | 269 kts | 269° |
| 2026-04-25 01:32 | 40.81638 | -74.21440 | 6263 ft | 265 kts | 271° |
| 2026-04-25 01:32 | 40.81677 | -74.23879 | 6962 ft | 264 kts | 275° |
| 2026-04-25 01:33 | 40.81799 | -74.26256 | 7565 ft | 266 kts | 276° |
| 2026-04-25 01:33 | 40.81942 | -74.28682 | 8225 ft | 265 kts | 276° |
| 2026-04-25 01:33 | 40.82060 | -74.31099 | 8833 ft | 267 kts | 275° |
| 2026-04-25 01:33 | 40.82139 | -74.33558 | 9415 ft | 269 kts | 274° |
| 2026-04-25 01:34 | 40.82182 | -74.36024 | 10040 ft | 269 kts | 274° |
| 2026-04-25 01:34 | 40.82214 | -74.38565 | 10215 ft | 287 kts | 274° |
| 2026-04-25 01:34 | 40.82180 | -74.41300 | 10252 ft | 307 kts | 272° |
| 2026-04-25 01:34 | 40.82086 | -74.44181 | 10464 ft | 318 kts | 271° |
| 2026-04-25 01:35 | 40.82026 | -74.47074 | 11044 ft | 316 kts | 274° |
| 2026-04-25 01:35 | 40.82045 | -74.49957 | 11711 ft | 313 kts | 276° |
| 2026-04-25 01:35 | 40.82106 | -74.52824 | 12312 ft | 311 kts | 277° |
| 2026-04-25 01:35 | 40.82148 | -74.55660 | 12915 ft | 312 kts | 276° |
| 2026-04-25 01:36 | 40.82150 | -74.58608 | 13385 ft | 317 kts | 275° |
| 2026-04-25 01:36 | 40.82113 | -74.61553 | 13960 ft | 318 kts | 275° |
| 2026-04-25 01:36 | 40.82070 | -74.64488 | 14467 ft | 321 kts | 275° |
| 2026-04-25 01:36 | 40.82027 | -74.67417 | 15000 ft | 324 kts | 275° |
| 2026-04-25 01:37 | 40.81981 | -74.70384 | 15545 ft | 326 kts | 275° |
| 2026-04-25 01:37 | 40.81927 | -74.73399 | 16088 ft | 328 kts | 275° |
| 2026-04-25 01:37 | 40.81860 | -74.76423 | 16634 ft | 330 kts | 274° |
| 2026-04-25 01:37 | 40.81782 | -74.79456 | 17166 ft | 333 kts | 274° |
| 2026-04-25 01:38 | 40.81695 | -74.82472 | 17628 ft | 335 kts | 274° |
| 2026-04-25 01:38 | 40.81586 | -74.85653 | 18131 ft | 339 kts | 274° |
| 2026-04-25 01:38 | 40.81467 | -74.88775 | 18633 ft | 341 kts | 274° |
| 2026-04-25 01:38 | 40.81347 | -74.91864 | 19121 ft | 344 kts | 273° |
| 2026-04-25 01:39 | 40.81215 | -74.95045 | 19663 ft | 347 kts | 273° |
| 2026-04-25 01:39 | 40.81074 | -74.98248 | 20207 ft | 349 kts | 273° |
| 2026-04-25 01:39 | 40.80927 | -75.01409 | 20735 ft | 352 kts | 272° |
| 2026-04-25 01:39 | 40.80762 | -75.04639 | 21224 ft | 355 kts | 272° |
| 2026-04-25 01:40 | 40.80579 | -75.07918 | 21672 ft | 359 kts | 272° |
| 2026-04-25 01:40 | 40.80383 | -75.11221 | 22116 ft | 362 kts | 271° |
| 2026-04-25 01:40 | 40.80000 | -75.14524 | 22545 ft | 368 kts | 266° |
| 2026-04-25 01:40 | 40.79527 | -75.17857 | 22972 ft | 370 kts | 266° |
| 2026-04-25 01:41 | 40.79039 | -75.21210 | 23383 ft | 373 kts | 266° |
| 2026-04-25 01:41 | 40.78549 | -75.24548 | 23790 ft | 375 kts | 266° |
| 2026-04-25 01:41 | 40.78049 | -75.27946 | 24233 ft | 377 kts | 266° |
| 2026-04-25 01:41 | 40.77550 | -75.31361 | 24577 ft | 381 kts | 265° |
| 2026-04-25 01:42 | 40.77043 | -75.34806 | 24977 ft | 384 kts | 266° |
| 2026-04-25 01:42 | 40.76396 | -75.38273 | 25326 ft | 395 kts | 257° |
| 2026-04-25 01:42 | 40.75266 | -75.41559 | 25787 ft | 399 kts | 252° |
| 2026-04-25 01:42 | 40.74066 | -75.44895 | 26286 ft | 398 kts | 252° |
| 2026-04-25 01:43 | 40.72871 | -75.48170 | 26709 ft | 399 kts | 252° |
| 2026-04-25 01:43 | 40.71646 | -75.51469 | 27205 ft | 398 kts | 252° |
| 2026-04-25 01:43 | 40.70422 | -75.54735 | 27633 ft | 399 kts | 252° |
| 2026-04-25 01:43 | 40.69197 | -75.58008 | 28017 ft | 399 kts | 252° |
| 2026-04-25 01:44 | 40.67986 | -75.61238 | 28417 ft | 399 kts | 252° |
| 2026-04-25 01:44 | 40.66743 | -75.64553 | 28826 ft | 399 kts | 252° |
| 2026-04-25 01:44 | 40.65516 | -75.67819 | 29222 ft | 398 kts | 252° |
| 2026-04-25 01:44 | 40.64291 | -75.71081 | 29530 ft | 400 kts | 252° |
| 2026-04-25 01:45 | 40.63053 | -75.74369 | 29913 ft | 397 kts | 252° |
| 2026-04-25 01:45 | 40.61836 | -75.77582 | 30046 ft | 391 kts | 252° |
| 2026-04-25 01:45 | 40.60628 | -75.80786 | 29897 ft | 388 kts | 252° |
| 2026-04-25 01:45 | 40.59429 | -75.83954 | 29992 ft | 387 kts | 252° |
| 2026-04-25 01:46 | 40.57015 | -75.90326 | 29906 ft | 389 kts | 252° |
| 2026-04-25 01:46 | 40.54661 | -75.96494 | 29946 ft | 390 kts | 252° |
| 2026-04-25 01:47 | 40.52205 | -76.02929 | 29912 ft | 389 kts | 251° |
| 2026-04-25 01:47 | 40.49756 | -76.09330 | 29899 ft | 390 kts | 251° |
| 2026-04-25 01:48 | 40.47318 | -76.15692 | 29932 ft | 390 kts | 251° |
| 2026-04-25 01:48 | 40.44884 | -76.22026 | 29914 ft | 389 kts | 251° |
| 2026-04-25 01:49 | 40.42445 | -76.28359 | 29911 ft | 390 kts | 251° |
| 2026-04-25 01:49 | 40.40011 | -76.34669 | 29891 ft | 390 kts | 251° |
| 2026-04-25 01:50 | 40.37557 | -76.41017 | 29889 ft | 389 kts | 251° |
| 2026-04-25 01:50 | 40.35180 | -76.47159 | 29876 ft | 390 kts | 251° |
| 2026-04-25 01:51 | 40.32723 | -76.53420 | 29900 ft | 391 kts | 250° |
| 2026-04-25 01:51 | 40.30164 | -76.59758 | 29889 ft | 390 kts | 250° |
| 2026-04-25 01:52 | 40.27633 | -76.66052 | 29903 ft | 390 kts | 250° |
| 2026-04-25 01:52 | 40.25113 | -76.72341 | 29913 ft | 390 kts | 250° |
| 2026-04-25 01:53 | 40.22594 | -76.78592 | 29906 ft | 390 kts | 250° |
| 2026-04-25 01:53 | 40.20072 | -76.84839 | 29920 ft | 389 kts | 250° |
| 2026-04-25 01:54 | 40.17540 | -76.91086 | 29929 ft | 390 kts | 250° |
| 2026-04-25 01:54 | 40.15004 | -76.97356 | 29929 ft | 389 kts | 250° |
| 2026-04-25 01:55 | 40.12472 | -77.03589 | 29926 ft | 388 kts | 250° |
| 2026-04-25 01:55 | 40.09934 | -77.09824 | 29929 ft | 390 kts | 249° |
| 2026-04-25 01:56 | 40.07405 | -77.16036 | 29936 ft | 388 kts | 249° |
| 2026-04-25 01:56 | 40.04917 | -77.22128 | 29922 ft | 389 kts | 249° |
| 2026-04-25 01:57 | 40.01078 | -77.31479 | 29924 ft | 389 kts | 249° |
| 2026-04-25 01:58 | 39.98609 | -77.37496 | 29922 ft | 388 kts | 249° |
| 2026-04-25 01:58 | 39.96265 | -77.43757 | 29944 ft | 380 kts | 259° |
| 2026-04-25 01:58 | 39.95757 | -77.47044 | 29927 ft | 371 kts | 271° |
| 2026-04-25 01:59 | 39.95750 | -77.50310 | 29952 ft | 367 kts | 276° |
| 2026-04-25 01:59 | 39.95886 | -77.56988 | 29913 ft | 367 kts | 276° |
| 2026-04-25 02:00 | 39.96105 | -77.63640 | 29916 ft | 367 kts | 277° |
| 2026-04-25 02:00 | 39.96334 | -77.70249 | 29914 ft | 366 kts | 277° |
| 2026-04-25 02:01 | 39.96543 | -77.76895 | 29894 ft | 367 kts | 277° |
| 2026-04-25 02:01 | 39.96747 | -77.83496 | 29910 ft | 366 kts | 277° |
| 2026-04-25 02:02 | 39.96950 | -77.90122 | 29910 ft | 367 kts | 277° |
| 2026-04-25 02:02 | 39.97150 | -77.96783 | 29920 ft | 368 kts | 277° |
| 2026-04-25 02:03 | 39.97333 | -78.03425 | 29939 ft | 367 kts | 276° |
| 2026-04-25 02:03 | 39.97516 | -78.10081 | 29919 ft | 367 kts | 276° |
| 2026-04-25 02:04 | 39.97691 | -78.16742 | 29941 ft | 366 kts | 276° |
| 2026-04-25 02:04 | 39.97870 | -78.23393 | 29911 ft | 367 kts | 276° |
| 2026-04-25 02:05 | 39.98030 | -78.29565 | 29928 ft | 368 kts | 276° |
| 2026-04-25 02:05 | 39.98193 | -78.36169 | 29926 ft | 367 kts | 276° |
| 2026-04-25 02:06 | 39.98358 | -78.42846 | 29917 ft | 368 kts | 276° |
| 2026-04-25 02:06 | 39.98521 | -78.49539 | 29927 ft | 369 kts | 276° |
| 2026-04-25 02:07 | 39.98669 | -78.56240 | 29931 ft | 370 kts | 276° |
| 2026-04-25 02:07 | 39.98828 | -78.62924 | 29921 ft | 369 kts | 276° |
| 2026-04-25 02:08 | 39.98957 | -78.68527 | 29946 ft | 370 kts | 275° |
| 2026-04-25 02:08 | 39.99100 | -78.75128 | 29938 ft | 371 kts | 275° |
| 2026-04-25 02:09 | 39.99243 | -78.81950 | 29949 ft | 371 kts | 275° |
| 2026-04-25 02:09 | 39.99381 | -78.88688 | 29951 ft | 372 kts | 275° |
| 2026-04-25 02:10 | 39.99516 | -78.95437 | 29944 ft | 373 kts | 275° |
| 2026-04-25 02:10 | 39.99649 | -79.02132 | 29945 ft | 373 kts | 275° |
| 2026-04-25 02:11 | 39.99777 | -79.08905 | 29948 ft | 373 kts | 275° |
| 2026-04-25 02:11 | 39.99901 | -79.15638 | 29948 ft | 374 kts | 274° |
| 2026-04-25 02:12 | 40.00021 | -79.22403 | 29944 ft | 374 kts | 274° |
| 2026-04-25 02:12 | 40.00129 | -79.28914 | 29908 ft | 371 kts | 275° |
| 2026-04-25 02:13 | 40.00241 | -79.35661 | 29900 ft | 372 kts | 274° |
| 2026-04-25 02:13 | 40.00350 | -79.42397 | 29884 ft | 373 kts | 274° |
| 2026-04-25 02:14 | 40.00452 | -79.49190 | 29874 ft | 373 kts | 274° |
| 2026-04-25 02:14 | 40.00549 | -79.55944 | 29887 ft | 374 kts | 274° |
| 2026-04-25 02:15 | 40.00647 | -79.62668 | 29875 ft | 373 kts | 274° |
| 2026-04-25 02:15 | 40.00742 | -79.69469 | 29884 ft | 374 kts | 274° |
| 2026-04-25 02:16 | 40.00829 | -79.76270 | 29884 ft | 374 kts | 274° |
| 2026-04-25 02:16 | 40.00913 | -79.83022 | 29887 ft | 375 kts | 274° |
| 2026-04-25 02:17 | 40.00996 | -79.89827 | 29882 ft | 375 kts | 273° |
| 2026-04-25 02:17 | 40.01073 | -79.96590 | 29876 ft | 375 kts | 273° |
| 2026-04-25 02:18 | 40.01144 | -80.03427 | 29879 ft | 375 kts | 273° |
| 2026-04-25 02:18 | 40.01214 | -80.10162 | 29874 ft | 375 kts | 273° |
| 2026-04-25 02:19 | 40.01279 | -80.16958 | 29884 ft | 375 kts | 273° |
| 2026-04-25 02:19 | 40.01340 | -80.23644 | 29884 ft | 375 kts | 273° |
| 2026-04-25 02:20 | 40.01400 | -80.30408 | 29889 ft | 375 kts | 273° |
| 2026-04-25 02:20 | 40.01448 | -80.37193 | 29876 ft | 375 kts | 273° |
| 2026-04-25 02:21 | 40.01499 | -80.44030 | 29879 ft | 375 kts | 273° |
| 2026-04-25 02:21 | 40.01544 | -80.50818 | 29873 ft | 375 kts | 273° |
| 2026-04-25 02:22 | 40.01586 | -80.57598 | 29866 ft | 375 kts | 273° |
| 2026-04-25 02:22 | 40.01622 | -80.64362 | 29863 ft | 375 kts | 273° |
| 2026-04-25 02:23 | 40.01657 | -80.71222 | 29846 ft | 375 kts | 273° |
| 2026-04-25 02:23 | 40.01690 | -80.78004 | 29850 ft | 376 kts | 273° |
| 2026-04-25 02:24 | 40.01695 | -80.84817 | 29863 ft | 376 kts | 272° |
| 2026-04-25 02:24 | 40.01580 | -80.91673 | 29850 ft | 377 kts | 271° |
| 2026-04-25 02:25 | 40.01469 | -80.98520 | 29850 ft | 377 kts | 271° |
| 2026-04-25 02:25 | 40.01377 | -81.05361 | 29851 ft | 377 kts | 271° |
| 2026-04-25 02:26 | 40.01280 | -81.12174 | 29854 ft | 378 kts | 271° |
| 2026-04-25 02:26 | 40.01177 | -81.19033 | 29855 ft | 378 kts | 271° |
| 2026-04-25 02:27 | 40.01065 | -81.25902 | 29852 ft | 378 kts | 271° |
| 2026-04-25 02:27 | 40.00931 | -81.32773 | 29856 ft | 380 kts | 271° |
| 2026-04-25 02:28 | 40.00797 | -81.39665 | 29850 ft | 380 kts | 271° |
| 2026-04-25 02:28 | 40.00659 | -81.46560 | 29853 ft | 380 kts | 271° |
| 2026-04-25 02:29 | 40.00517 | -81.53417 | 29849 ft | 381 kts | 271° |
| 2026-04-25 02:29 | 40.00376 | -81.60357 | 29852 ft | 381 kts | 271° |
| 2026-04-25 02:30 | 40.00237 | -81.67226 | 29852 ft | 382 kts | 271° |
| 2026-04-25 02:30 | 40.00092 | -81.74150 | 29853 ft | 382 kts | 271° |
| 2026-04-25 02:31 | 39.99941 | -81.81088 | 29849 ft | 383 kts | 271° |
| 2026-04-25 02:31 | 39.99785 | -81.88029 | 29847 ft | 383 kts | 271° |
| 2026-04-25 02:32 | 39.99627 | -81.94953 | 29834 ft | 383 kts | 271° |
| 2026-04-25 02:32 | 39.99462 | -82.01887 | 29844 ft | 383 kts | 271° |
| 2026-04-25 02:33 | 39.99298 | -82.08771 | 29845 ft | 383 kts | 271° |
| 2026-04-25 02:33 | 39.99128 | -82.15752 | 29842 ft | 383 kts | 271° |
| 2026-04-25 02:34 | 39.98949 | -82.22715 | 29825 ft | 383 kts | 271° |
| 2026-04-25 02:34 | 39.98769 | -82.29629 | 29836 ft | 382 kts | 271° |
| 2026-04-25 02:35 | 39.98590 | -82.36578 | 29823 ft | 383 kts | 270° |
| 2026-04-25 02:35 | 39.98399 | -82.43518 | 29823 ft | 383 kts | 270° |
| 2026-04-25 02:36 | 39.98207 | -82.50419 | 29826 ft | 383 kts | 270° |
| 2026-04-25 02:36 | 39.98016 | -82.57292 | 29824 ft | 383 kts | 270° |
| 2026-04-25 02:37 | 39.97815 | -82.64224 | 29833 ft | 383 kts | 270° |
| 2026-04-25 02:37 | 39.97611 | -82.71040 | 29836 ft | 383 kts | 270° |
| 2026-04-25 02:38 | 39.97408 | -82.77956 | 29840 ft | 382 kts | 270° |
| 2026-04-25 02:38 | 39.97194 | -82.84903 | 29837 ft | 382 kts | 270° |
| 2026-04-25 02:39 | 39.96977 | -82.91803 | 29844 ft | 382 kts | 270° |
| 2026-04-25 02:39 | 39.96761 | -82.98688 | 29854 ft | 382 kts | 269° |
| 2026-04-25 02:40 | 39.96547 | -83.05520 | 29867 ft | 381 kts | 270° |
| 2026-04-25 02:40 | 39.96423 | -83.12473 | 29869 ft | 381 kts | 270° |
| 2026-04-25 02:41 | 39.96319 | -83.19306 | 29890 ft | 380 kts | 270° |
| 2026-04-25 02:41 | 39.96104 | -83.26203 | 29872 ft | 380 kts | 268° |
| 2026-04-25 02:42 | 39.95837 | -83.33068 | 29885 ft | 380 kts | 269° |
| 2026-04-25 02:42 | 39.95604 | -83.39933 | 29898 ft | 378 kts | 269° |
| 2026-04-25 02:43 | 39.95379 | -83.46575 | 29890 ft | 378 kts | 268° |
| 2026-04-25 02:43 | 39.95135 | -83.53433 | 29884 ft | 378 kts | 268° |
| 2026-04-25 02:44 | 39.94885 | -83.60278 | 29892 ft | 378 kts | 268° |
| 2026-04-25 02:44 | 39.94632 | -83.67124 | 29889 ft | 378 kts | 268° |
| 2026-04-25 02:45 | 39.94381 | -83.73906 | 29882 ft | 376 kts | 268° |
| 2026-04-25 02:45 | 39.94122 | -83.80741 | 29889 ft | 376 kts | 268° |
| 2026-04-25 02:46 | 39.93863 | -83.87458 | 29890 ft | 377 kts | 268° |
| 2026-04-25 02:46 | 39.93596 | -83.94295 | 29878 ft | 376 kts | 268° |
| 2026-04-25 02:47 | 39.93328 | -84.01088 | 29880 ft | 376 kts | 268° |
| 2026-04-25 02:47 | 39.93053 | -84.07887 | 29880 ft | 376 kts | 268° |
| 2026-04-25 02:48 | 39.92775 | -84.14705 | 29881 ft | 376 kts | 268° |
| 2026-04-25 02:48 | 39.92492 | -84.21552 | 29879 ft | 376 kts | 267° |
| 2026-04-25 02:49 | 39.92252 | -84.27187 | 29883 ft | 376 kts | 267° |
| 2026-04-25 02:49 | 39.91916 | -84.35032 | 29877 ft | 378 kts | 267° |
| 2026-04-25 02:50 | 39.91679 | -84.40486 | 29880 ft | 377 kts | 267° |
| 2026-04-25 02:50 | 39.91381 | -84.47326 | 29879 ft | 377 kts | 267° |
| 2026-04-25 02:51 | 39.91074 | -84.54192 | 29896 ft | 379 kts | 267° |
| 2026-04-25 02:51 | 39.90764 | -84.60989 | 29895 ft | 378 kts | 267° |
| 2026-04-25 02:52 | 39.90458 | -84.67722 | 29901 ft | 378 kts | 267° |
| 2026-04-25 02:52 | 39.90147 | -84.74447 | 29893 ft | 379 kts | 266° |
| 2026-04-25 02:53 | 39.89837 | -84.81108 | 29911 ft | 379 kts | 266° |
| 2026-04-25 02:53 | 39.89525 | -84.87761 | 29909 ft | 380 kts | 266° |
| 2026-04-25 02:54 | 39.89195 | -84.94670 | 29907 ft | 380 kts | 266° |
| 2026-04-25 02:54 | 39.88861 | -85.01528 | 29893 ft | 380 kts | 266° |
| 2026-04-25 02:55 | 39.88519 | -85.08412 | 29899 ft | 380 kts | 265° |
| 2026-04-25 02:55 | 39.88182 | -85.15201 | 29899 ft | 380 kts | 265° |
| 2026-04-25 02:56 | 39.87841 | -85.22077 | 29899 ft | 380 kts | 265° |
| 2026-04-25 02:56 | 39.87500 | -85.28713 | 29897 ft | 381 kts | 265° |
| 2026-04-25 02:57 | 39.87158 | -85.35345 | 29897 ft | 380 kts | 265° |
| 2026-04-25 02:57 | 39.86803 | -85.42194 | 29902 ft | 380 kts | 264° |
| 2026-04-25 02:58 | 39.86443 | -85.49048 | 29900 ft | 380 kts | 264° |
| 2026-04-25 02:58 | 39.86082 | -85.55915 | 29904 ft | 380 kts | 264° |
| 2026-04-25 02:59 | 39.85708 | -85.62799 | 29907 ft | 380 kts | 264° |
| 2026-04-25 02:59 | 39.85335 | -85.69562 | 29909 ft | 379 kts | 264° |
| 2026-04-25 03:00 | 39.84952 | -85.76512 | 29907 ft | 379 kts | 264° |
| 2026-04-25 03:00 | 39.84589 | -85.83091 | 29908 ft | 380 kts | 264° |
| 2026-04-25 03:01 | 39.84203 | -85.89992 | 29906 ft | 379 kts | 263° |
| 2026-04-25 03:01 | 39.83815 | -85.96779 | 29909 ft | 379 kts | 263° |
| 2026-04-25 03:02 | 39.83421 | -86.03645 | 29908 ft | 379 kts | 263° |
| 2026-04-25 03:02 | 39.83030 | -86.10353 | 29908 ft | 379 kts | 263° |
| 2026-04-25 03:03 | 39.82629 | -86.17182 | 29907 ft | 379 kts | 263° |
| 2026-04-25 03:03 | 39.82232 | -86.23924 | 29900 ft | 374 kts | 262° |
| 2026-04-25 03:04 | 39.81834 | -86.30658 | 29918 ft | 376 kts | 262° |
| 2026-04-25 03:04 | 39.81505 | -86.37403 | 29927 ft | 376 kts | 267° |
| 2026-04-25 03:05 | 39.81675 | -86.47634 | 29933 ft | 378 kts | 268° |
| 2026-04-25 03:05 | 39.81821 | -86.54463 | 29908 ft | 377 kts | 268° |
| 2026-04-25 03:06 | 39.81963 | -86.61305 | 29919 ft | 378 kts | 268° |
| 2026-04-25 03:06 | 39.82098 | -86.68137 | 29918 ft | 377 kts | 268° |
| 2026-04-25 03:07 | 39.82221 | -86.74745 | 29918 ft | 377 kts | 268° |
| 2026-04-25 03:07 | 39.82345 | -86.81543 | 29927 ft | 377 kts | 268° |
| 2026-04-25 03:08 | 39.82468 | -86.88382 | 29927 ft | 377 kts | 268° |
| 2026-04-25 03:08 | 39.82585 | -86.95217 | 29927 ft | 377 kts | 268° |
| 2026-04-25 03:09 | 39.82699 | -87.02050 | 29927 ft | 377 kts | 267° |
| 2026-04-25 03:09 | 39.82808 | -87.08852 | 29930 ft | 376 kts | 267° |
| 2026-04-25 03:10 | 39.82913 | -87.15582 | 29927 ft | 376 kts | 267° |
| 2026-04-25 03:10 | 39.83015 | -87.22413 | 29925 ft | 376 kts | 267° |
| 2026-04-25 03:11 | 39.83113 | -87.29216 | 29928 ft | 376 kts | 267° |
| 2026-04-25 03:11 | 39.83205 | -87.35929 | 29927 ft | 375 kts | 267° |
| 2026-04-25 03:12 | 39.83294 | -87.42753 | 29929 ft | 375 kts | 267° |
| 2026-04-25 03:12 | 39.83379 | -87.49548 | 29925 ft | 375 kts | 267° |
| 2026-04-25 03:13 | 39.83459 | -87.56346 | 29926 ft | 376 kts | 267° |
| 2026-04-25 03:13 | 39.83537 | -87.63115 | 29926 ft | 376 kts | 267° |
| 2026-04-25 03:14 | 39.83610 | -87.69819 | 29929 ft | 375 kts | 266° |
| 2026-04-25 03:14 | 39.83681 | -87.76639 | 29927 ft | 375 kts | 266° |
| 2026-04-25 03:15 | 39.83745 | -87.83406 | 29929 ft | 375 kts | 266° |
| 2026-04-25 03:15 | 39.83806 | -87.90187 | 29926 ft | 375 kts | 266° |
| 2026-04-25 03:16 | 39.83863 | -87.96938 | 29926 ft | 375 kts | 266° |
| 2026-04-25 03:16 | 39.83919 | -88.03709 | 29926 ft | 375 kts | 266° |
| 2026-04-25 03:17 | 39.83970 | -88.10516 | 29932 ft | 375 kts | 266° |
| 2026-04-25 03:17 | 39.84013 | -88.17215 | 29923 ft | 375 kts | 266° |
| 2026-04-25 03:18 | 39.84055 | -88.23988 | 29924 ft | 375 kts | 266° |
| 2026-04-25 03:18 | 39.84091 | -88.30792 | 29927 ft | 375 kts | 266° |
| 2026-04-25 03:19 | 39.84120 | -88.37561 | 29931 ft | 374 kts | 266° |
| 2026-04-25 03:19 | 39.84148 | -88.44285 | 29920 ft | 374 kts | 266° |
| 2026-04-25 03:20 | 39.84171 | -88.51067 | 29905 ft | 374 kts | 266° |
| 2026-04-25 03:20 | 39.84185 | -88.57838 | 29899 ft | 374 kts | 266° |
| 2026-04-25 03:21 | 39.84192 | -88.64377 | 29890 ft | 374 kts | 266° |
| 2026-04-25 03:21 | 39.84193 | -88.71129 | 29881 ft | 373 kts | 266° |
| 2026-04-25 03:22 | 39.84188 | -88.77864 | 29880 ft | 373 kts | 265° |
| 2026-04-25 03:22 | 39.84179 | -88.84614 | 29872 ft | 372 kts | 265° |
| 2026-04-25 03:23 | 39.84161 | -88.91369 | 29874 ft | 372 kts | 265° |
| 2026-04-25 03:23 | 39.84137 | -88.98053 | 29871 ft | 371 kts | 265° |
| 2026-04-25 03:24 | 39.84108 | -89.04785 | 29872 ft | 371 kts | 265° |
| 2026-04-25 03:24 | 39.84080 | -89.11414 | 29874 ft | 370 kts | 265° |
| 2026-04-25 03:25 | 39.84050 | -89.18175 | 29882 ft | 370 kts | 265° |
| 2026-04-25 03:25 | 39.84012 | -89.24786 | 29882 ft | 369 kts | 265° |
| 2026-04-25 03:26 | 39.83972 | -89.31517 | 29882 ft | 369 kts | 265° |
| 2026-04-25 03:26 | 39.83929 | -89.38141 | 29891 ft | 368 kts | 265° |
| 2026-04-25 03:27 | 39.83885 | -89.44795 | 29898 ft | 368 kts | 265° |
| 2026-04-25 03:27 | 39.83835 | -89.51442 | 29899 ft | 367 kts | 265° |
| 2026-04-25 03:28 | 39.83777 | -89.58011 | 29915 ft | 367 kts | 265° |
| 2026-04-25 03:28 | 39.83712 | -89.64653 | 29922 ft | 367 kts | 265° |
| 2026-04-25 03:29 | 39.83643 | -89.71287 | 29929 ft | 367 kts | 264° |
| 2026-04-25 03:29 | 39.83568 | -89.77920 | 29936 ft | 366 kts | 264° |
| 2026-04-25 03:30 | 39.83486 | -89.84555 | 29950 ft | 366 kts | 264° |
| 2026-04-25 03:30 | 39.83401 | -89.91156 | 29960 ft | 366 kts | 264° |
| 2026-04-25 03:31 | 39.83316 | -89.97788 | 29971 ft | 366 kts | 264° |
| 2026-04-25 03:31 | 39.83227 | -90.04345 | 29976 ft | 366 kts | 264° |
| 2026-04-25 03:32 | 39.83132 | -90.10912 | 29984 ft | 366 kts | 264° |
| 2026-04-25 03:32 | 39.83029 | -90.17592 | 29990 ft | 366 kts | 264° |
| 2026-04-25 03:33 | 39.82920 | -90.24115 | 29997 ft | 365 kts | 264° |
| 2026-04-25 03:33 | 39.82803 | -90.30673 | 30007 ft | 365 kts | 264° |
| 2026-04-25 03:34 | 39.82683 | -90.37283 | 30011 ft | 365 kts | 264° |
| 2026-04-25 03:34 | 39.82563 | -90.43875 | 30030 ft | 365 kts | 264° |
| 2026-04-25 03:35 | 39.82461 | -90.49329 | 30047 ft | 365 kts | 264° |
| 2026-04-25 03:35 | 39.82333 | -90.55890 | 30058 ft | 364 kts | 264° |
| 2026-04-25 03:36 | 39.82197 | -90.62505 | 30065 ft | 364 kts | 264° |
| 2026-04-25 03:36 | 39.82058 | -90.69103 | 30072 ft | 363 kts | 264° |
| 2026-04-25 03:37 | 39.81894 | -90.76709 | 30085 ft | 363 kts | 264° |
| 2026-04-25 03:37 | 39.81771 | -90.82216 | 30098 ft | 363 kts | 264° |
| 2026-04-25 03:38 | 39.81615 | -90.88775 | 30115 ft | 363 kts | 263° |
| 2026-04-25 03:38 | 39.81443 | -90.95300 | 30137 ft | 362 kts | 263° |
| 2026-04-25 03:39 | 39.81269 | -91.01806 | 30157 ft | 362 kts | 263° |
| 2026-04-25 03:39 | 39.81101 | -91.08345 | 30178 ft | 362 kts | 263° |
| 2026-04-25 03:40 | 39.80917 | -91.14887 | 30209 ft | 360 kts | 263° |
| 2026-04-25 03:40 | 39.80713 | -91.21364 | 30240 ft | 360 kts | 263° |
| 2026-04-25 03:41 | 39.80501 | -91.27878 | 30266 ft | 360 kts | 263° |
| 2026-04-25 03:41 | 39.80284 | -91.34391 | 30299 ft | 359 kts | 263° |
| 2026-04-25 03:42 | 39.80058 | -91.40871 | 30325 ft | 358 kts | 262° |
| 2026-04-25 03:42 | 39.79824 | -91.47257 | 30344 ft | 357 kts | 262° |